sensor_id;sensor_type;location;lat;lon;timestamp;P1;durP1;ratioP1;P2;durP2;ratioP2
37791;SDS011;29527;55.766;37.570;2023-02-08T00:01:13;13.38;;;8.15;;
37791;SDS011;29527;55.766;37.570;2023-02-08T00:03:40;16.27;;;8.88;;
37791;SDS011;29527;55.766;37.570;2023-02-08T00:06:06;14.27;;;8.73;;
37791;SDS011;29527;55.766;37.570;2023-02-08T00:08:33;14.73;;;8.13;;
37791;SDS011;29527;55.766;37.570;2023-02-08T00:10:59;15.90;;;8.60;;
37791;SDS011;29527;55.766;37.570;2023-02-08T00:13:25;13.85;;;8.35;;
37791;SDS011;29527;55.766;37.570;2023-02-08T00:15:51;13.90;;;8.15;;
37791;SDS011;29527;55.766;37.570;2023-02-08T00:18:18;15.32;;;9.13;;
37791;SDS011;29527;55.766;37.570;2023-02-08T00:20:44;16.27;;;8.40;;
37791;SDS011;29527;55.766;37.570;2023-02-08T00:23:10;14.90;;;8.85;;
37791;SDS011;29527;55.766;37.570;2023-02-08T00:25:36;15.35;;;8.77;;
37791;SDS011;29527;55.766;37.570;2023-02-08T00:28:03;17.75;;;8.90;;
37791;SDS011;29527;55.766;37.570;2023-02-08T00:30:28;16.40;;;8.73;;
37791;SDS011;29527;55.766;37.570;2023-02-08T00:32:54;14.98;;;8.77;;
37791;SDS011;29527;55.766;37.570;2023-02-08T00:35:19;14.70;;;8.75;;
37791;SDS011;29527;55.766;37.570;2023-02-08T00:37:45;13.77;;;8.45;;
37791;SDS011;29527;55.766;37.570;2023-02-08T00:40:10;15.82;;;9.05;;
37791;SDS011;29527;55.766;37.570;2023-02-08T00:42:36;18.08;;;9.23;;
37791;SDS011;29527;55.766;37.570;2023-02-08T00:45:01;15.75;;;8.80;;
37791;SDS011;29527;55.766;37.570;2023-02-08T00:47:29;14.27;;;8.20;;
37791;SDS011;29527;55.766;37.570;2023-02-08T00:49:55;14.00;;;8.48;;
37791;SDS011;29527;55.766;37.570;2023-02-08T00:52:20;14.43;;;8.32;;
37791;SDS011;29527;55.766;37.570;2023-02-08T00:54:46;12.98;;;8.00;;
37791;SDS011;29527;55.766;37.570;2023-02-08T00:57:12;12.13;;;7.75;;
37791;SDS011;29527;55.766;37.570;2023-02-08T00:59:38;15.60;;;8.30;;
37791;SDS011;29527;55.766;37.570;2023-02-08T01:02:04;13.95;;;8.07;;
37791;SDS011;29527;55.766;37.570;2023-02-08T01:04:30;13.40;;;7.72;;
37791;SDS011;29527;55.766;37.570;2023-02-08T01:06:55;13.15;;;7.82;;
37791;SDS011;29527;55.766;37.570;2023-02-08T01:09:21;16.17;;;8.05;;
37791;SDS011;29527;55.766;37.570;2023-02-08T01:11:46;14.85;;;8.27;;
37791;SDS011;29527;55.766;37.570;2023-02-08T01:14:11;13.55;;;8.15;;
37791;SDS011;29527;55.766;37.570;2023-02-08T01:16:37;14.75;;;8.25;;
37791;SDS011;29527;55.766;37.570;2023-02-08T01:19:03;12.23;;;7.70;;
37791;SDS011;29527;55.766;37.570;2023-02-08T01:21:33;13.85;;;8.32;;
37791;SDS011;29527;55.766;37.570;2023-02-08T01:24:00;14.48;;;8.05;;
37791;SDS011;29527;55.766;37.570;2023-02-08T01:26:27;16.10;;;8.68;;
37791;SDS011;29527;55.766;37.570;2023-02-08T01:28:53;13.88;;;8.45;;
37791;SDS011;29527;55.766;37.570;2023-02-08T01:31:23;13.60;;;8.02;;
37791;SDS011;29527;55.766;37.570;2023-02-08T01:33:53;14.35;;;8.07;;
37791;SDS011;29527;55.766;37.570;2023-02-08T01:36:20;12.15;;;7.63;;
37791;SDS011;29527;55.766;37.570;2023-02-08T01:38:46;16.25;;;8.40;;
37791;SDS011;29527;55.766;37.570;2023-02-08T01:41:15;13.15;;;7.43;;
37791;SDS011;29527;55.766;37.570;2023-02-08T01:46:31;18.13;;;7.80;;
37791;SDS011;29527;55.766;37.570;2023-02-08T01:48:59;13.70;;;7.85;;
37791;SDS011;29527;55.766;37.570;2023-02-08T01:51:31;13.02;;;7.63;;
37791;SDS011;29527;55.766;37.570;2023-02-08T01:54:02;16.20;;;8.23;;
37791;SDS011;29527;55.766;37.570;2023-02-08T01:56:30;14.20;;;8.05;;
37791;SDS011;29527;55.766;37.570;2023-02-08T01:58:59;14.93;;;8.43;;
37791;SDS011;29527;55.766;37.570;2023-02-08T02:01:27;13.10;;;8.10;;
37791;SDS011;29527;55.766;37.570;2023-02-08T02:03:55;13.35;;;7.93;;
37791;SDS011;29527;55.766;37.570;2023-02-08T02:06:23;13.60;;;7.63;;
37791;SDS011;29527;55.766;37.570;2023-02-08T02:09:00;13.80;;;8.35;;
37791;SDS011;29527;55.766;37.570;2023-02-08T02:11:31;14.73;;;8.10;;
37791;SDS011;29527;55.766;37.570;2023-02-08T02:13:57;12.70;;;7.30;;
37791;SDS011;29527;55.766;37.570;2023-02-08T02:16:44;12.63;;;7.65;;
37791;SDS011;29527;55.766;37.570;2023-02-08T02:19:14;13.85;;;7.70;;
37791;SDS011;29527;55.766;37.570;2023-02-08T02:38:25;14.23;;;7.93;;
37791;SDS011;29527;55.766;37.570;2023-02-08T02:46:30;14.85;;;7.50;;
37791;SDS011;29527;55.766;37.570;2023-02-08T02:51:42;12.85;;;6.95;;
37791;SDS011;29527;55.766;37.570;2023-02-08T02:56:43;12.25;;;6.78;;
37791;SDS011;29527;55.766;37.570;2023-02-08T02:59:11;12.75;;;7.32;;
37791;SDS011;29527;55.766;37.570;2023-02-08T03:01:39;11.88;;;6.82;;
37791;SDS011;29527;55.766;37.570;2023-02-08T03:04:12;12.90;;;7.57;;
37791;SDS011;29527;55.766;37.570;2023-02-08T03:09:57;15.73;;;7.10;;
37791;SDS011;29527;55.766;37.570;2023-02-08T03:18:16;12.40;;;7.03;;
37791;SDS011;29527;55.766;37.570;2023-02-08T03:23:38;11.13;;;6.63;;
37791;SDS011;29527;55.766;37.570;2023-02-08T03:31:59;10.77;;;6.20;;
37791;SDS011;29527;55.766;37.570;2023-02-08T03:34:40;10.65;;;6.25;;
37791;SDS011;29527;55.766;37.570;2023-02-08T03:37:17;11.32;;;6.05;;
37791;SDS011;29527;55.766;37.570;2023-02-08T03:39:46;12.98;;;7.63;;
37791;SDS011;29527;55.766;37.570;2023-02-08T03:42:16;11.05;;;6.00;;
37791;SDS011;29527;55.766;37.570;2023-02-08T03:44:52;10.32;;;6.15;;
37791;SDS011;29527;55.766;37.570;2023-02-08T03:49:50;12.73;;;5.68;;
37791;SDS011;29527;55.766;37.570;2023-02-08T03:52:19;10.98;;;6.60;;
37791;SDS011;29527;55.766;37.570;2023-02-08T03:54:54;11.25;;;6.55;;
37791;SDS011;29527;55.766;37.570;2023-02-08T03:57:34;11.55;;;6.30;;
37791;SDS011;29527;55.766;37.570;2023-02-08T04:00:21;10.55;;;6.30;;
37791;SDS011;29527;55.766;37.570;2023-02-08T04:02:51;11.57;;;6.85;;
37791;SDS011;29527;55.766;37.570;2023-02-08T04:05:20;9.57;;;5.47;;
37791;SDS011;29527;55.766;37.570;2023-02-08T04:07:47;11.32;;;6.28;;
37791;SDS011;29527;55.766;37.570;2023-02-08T04:10:13;10.10;;;5.85;;
37791;SDS011;29527;55.766;37.570;2023-02-08T04:12:38;10.85;;;6.13;;
37791;SDS011;29527;55.766;37.570;2023-02-08T04:15:04;10.90;;;6.03;;
37791;SDS011;29527;55.766;37.570;2023-02-08T04:17:30;9.32;;;5.75;;
37791;SDS011;29527;55.766;37.570;2023-02-08T04:19:57;10.23;;;5.90;;
37791;SDS011;29527;55.766;37.570;2023-02-08T04:22:22;10.35;;;5.72;;
37791;SDS011;29527;55.766;37.570;2023-02-08T04:24:48;9.43;;;5.93;;
37791;SDS011;29527;55.766;37.570;2023-02-08T04:27:13;8.88;;;6.05;;
37791;SDS011;29527;55.766;37.570;2023-02-08T04:29:39;9.95;;;5.93;;
37791;SDS011;29527;55.766;37.570;2023-02-08T04:32:05;10.50;;;5.78;;
37791;SDS011;29527;55.766;37.570;2023-02-08T04:34:35;10.27;;;5.45;;
37791;SDS011;29527;55.766;37.570;2023-02-08T04:37:02;9.27;;;5.82;;
37791;SDS011;29527;55.766;37.570;2023-02-08T04:39:28;10.77;;;5.95;;
37791;SDS011;29527;55.766;37.570;2023-02-08T04:41:53;11.20;;;5.60;;
37791;SDS011;29527;55.766;37.570;2023-02-08T04:44:19;10.60;;;5.75;;
37791;SDS011;29527;55.766;37.570;2023-02-08T04:46:44;10.10;;;5.82;;
37791;SDS011;29527;55.766;37.570;2023-02-08T04:49:10;9.38;;;5.65;;
37791;SDS011;29527;55.766;37.570;2023-02-08T04:51:35;10.50;;;6.00;;
37791;SDS011;29527;55.766;37.570;2023-02-08T04:54:01;10.55;;;6.45;;
37791;SDS011;29527;55.766;37.570;2023-02-08T04:56:26;14.10;;;7.05;;
37791;SDS011;29527;55.766;37.570;2023-02-08T04:58:52;12.85;;;6.43;;
37791;SDS011;29527;55.766;37.570;2023-02-08T05:01:17;10.30;;;5.93;;
37791;SDS011;29527;55.766;37.570;2023-02-08T05:03:43;12.57;;;6.40;;
37791;SDS011;29527;55.766;37.570;2023-02-08T05:06:08;9.85;;;6.10;;
37791;SDS011;29527;55.766;37.570;2023-02-08T05:08:34;12.60;;;6.40;;
37791;SDS011;29527;55.766;37.570;2023-02-08T05:10:59;12.65;;;6.65;;
37791;SDS011;29527;55.766;37.570;2023-02-08T05:13:25;12.43;;;6.28;;
37791;SDS011;29527;55.766;37.570;2023-02-08T05:15:50;11.23;;;5.53;;
37791;SDS011;29527;55.766;37.570;2023-02-08T05:18:15;13.40;;;6.47;;
37791;SDS011;29527;55.766;37.570;2023-02-08T05:20:41;11.68;;;6.03;;
37791;SDS011;29527;55.766;37.570;2023-02-08T05:23:06;13.02;;;7.07;;
37791;SDS011;29527;55.766;37.570;2023-02-08T05:25:32;10.80;;;6.35;;
37791;SDS011;29527;55.766;37.570;2023-02-08T05:27:58;11.52;;;6.80;;
37791;SDS011;29527;55.766;37.570;2023-02-08T05:30:24;14.30;;;7.00;;
37791;SDS011;29527;55.766;37.570;2023-02-08T05:32:49;10.90;;;5.95;;
37791;SDS011;29527;55.766;37.570;2023-02-08T05:35:15;12.90;;;7.28;;
37791;SDS011;29527;55.766;37.570;2023-02-08T05:37:40;13.18;;;7.32;;
37791;SDS011;29527;55.766;37.570;2023-02-08T05:40:06;13.95;;;7.43;;
37791;SDS011;29527;55.766;37.570;2023-02-08T05:42:32;14.43;;;7.72;;
37791;SDS011;29527;55.766;37.570;2023-02-08T05:44:57;12.63;;;6.63;;
37791;SDS011;29527;55.766;37.570;2023-02-08T05:47:23;13.10;;;7.10;;
37791;SDS011;29527;55.766;37.570;2023-02-08T05:49:48;12.93;;;7.10;;
37791;SDS011;29527;55.766;37.570;2023-02-08T05:52:14;13.85;;;7.53;;
37791;SDS011;29527;55.766;37.570;2023-02-08T05:54:39;13.88;;;6.95;;
37791;SDS011;29527;55.766;37.570;2023-02-08T05:57:05;13.88;;;7.60;;
37791;SDS011;29527;55.766;37.570;2023-02-08T05:59:30;13.52;;;7.55;;
37791;SDS011;29527;55.766;37.570;2023-02-08T06:01:56;13.77;;;7.38;;
37791;SDS011;29527;55.766;37.570;2023-02-08T06:04:21;12.68;;;7.35;;
37791;SDS011;29527;55.766;37.570;2023-02-08T06:06:47;15.43;;;7.50;;
37791;SDS011;29527;55.766;37.570;2023-02-08T06:09:12;16.30;;;7.68;;
37791;SDS011;29527;55.766;37.570;2023-02-08T06:11:37;14.20;;;7.65;;
37791;SDS011;29527;55.766;37.570;2023-02-08T06:14:03;19.00;;;8.75;;
37791;SDS011;29527;55.766;37.570;2023-02-08T06:16:29;15.80;;;7.93;;
37791;SDS011;29527;55.766;37.570;2023-02-08T06:18:54;15.00;;;8.45;;
37791;SDS011;29527;55.766;37.570;2023-02-08T06:21:20;16.63;;;8.70;;
37791;SDS011;29527;55.766;37.570;2023-02-08T06:23:45;13.75;;;7.78;;
37791;SDS011;29527;55.766;37.570;2023-02-08T06:26:11;15.48;;;8.75;;
37791;SDS011;29527;55.766;37.570;2023-02-08T06:28:36;18.27;;;9.07;;
37791;SDS011;29527;55.766;37.570;2023-02-08T06:31:02;13.95;;;7.57;;
37791;SDS011;29527;55.766;37.570;2023-02-08T06:33:27;14.63;;;8.07;;
37791;SDS011;29527;55.766;37.570;2023-02-08T06:35:53;19.90;;;8.55;;
37791;SDS011;29527;55.766;37.570;2023-02-08T06:38:18;15.27;;;8.68;;
37791;SDS011;29527;55.766;37.570;2023-02-08T06:40:47;16.13;;;8.68;;
37791;SDS011;29527;55.766;37.570;2023-02-08T06:43:14;16.13;;;8.73;;
37791;SDS011;29527;55.766;37.570;2023-02-08T06:45:40;15.80;;;8.65;;
37791;SDS011;29527;55.766;37.570;2023-02-08T06:48:06;16.58;;;8.68;;
37791;SDS011;29527;55.766;37.570;2023-02-08T06:50:32;15.32;;;8.65;;
37791;SDS011;29527;55.766;37.570;2023-02-08T06:52:57;18.35;;;8.45;;
37791;SDS011;29527;55.766;37.570;2023-02-08T06:55:23;16.33;;;9.45;;
37791;SDS011;29527;55.766;37.570;2023-02-08T06:57:51;14.13;;;7.90;;
37791;SDS011;29527;55.766;37.570;2023-02-08T07:00:17;17.10;;;8.68;;
37791;SDS011;29527;55.766;37.570;2023-02-08T07:02:44;17.80;;;8.57;;
37791;SDS011;29527;55.766;37.570;2023-02-08T07:05:11;15.88;;;8.20;;
37791;SDS011;29527;55.766;37.570;2023-02-08T07:07:37;18.23;;;9.55;;
37791;SDS011;29527;55.766;37.570;2023-02-08T07:10:03;16.05;;;8.77;;
37791;SDS011;29527;55.766;37.570;2023-02-08T07:12:31;15.57;;;8.13;;
37791;SDS011;29527;55.766;37.570;2023-02-08T07:14:58;20.42;;;9.25;;
37791;SDS011;29527;55.766;37.570;2023-02-08T07:17:23;15.07;;;8.15;;
37791;SDS011;29527;55.766;37.570;2023-02-08T07:19:49;18.17;;;9.43;;
37791;SDS011;29527;55.766;37.570;2023-02-08T07:22:15;18.73;;;8.70;;
37791;SDS011;29527;55.766;37.570;2023-02-08T07:24:40;17.52;;;8.27;;
37791;SDS011;29527;55.766;37.570;2023-02-08T07:27:06;20.65;;;9.60;;
37791;SDS011;29527;55.766;37.570;2023-02-08T07:29:34;18.15;;;8.75;;
37791;SDS011;29527;55.766;37.570;2023-02-08T07:32:01;16.48;;;9.25;;
37791;SDS011;29527;55.766;37.570;2023-02-08T07:34:28;18.85;;;8.95;;
37791;SDS011;29527;55.766;37.570;2023-02-08T07:36:55;15.40;;;8.25;;
37791;SDS011;29527;55.766;37.570;2023-02-08T07:39:21;17.98;;;9.27;;
37791;SDS011;29527;55.766;37.570;2023-02-08T07:41:46;18.30;;;9.27;;
37791;SDS011;29527;55.766;37.570;2023-02-08T07:44:12;22.08;;;9.40;;
37791;SDS011;29527;55.766;37.570;2023-02-08T07:46:39;16.13;;;8.82;;
37791;SDS011;29527;55.766;37.570;2023-02-08T07:49:05;19.73;;;9.40;;
37791;SDS011;29527;55.766;37.570;2023-02-08T07:51:30;16.45;;;9.38;;
37791;SDS011;29527;55.766;37.570;2023-02-08T07:53:56;19.88;;;9.13;;
37791;SDS011;29527;55.766;37.570;2023-02-08T07:56:22;16.05;;;8.70;;
37791;SDS011;29527;55.766;37.570;2023-02-08T07:58:47;19.40;;;8.77;;
37791;SDS011;29527;55.766;37.570;2023-02-08T08:01:12;18.65;;;8.38;;
37791;SDS011;29527;55.766;37.570;2023-02-08T08:03:38;16.13;;;8.13;;
37791;SDS011;29527;55.766;37.570;2023-02-08T08:06:03;13.05;;;7.20;;
37791;SDS011;29527;55.766;37.570;2023-02-08T08:08:29;15.20;;;8.48;;
37791;SDS011;29527;55.766;37.570;2023-02-08T08:10:55;15.02;;;8.65;;
37791;SDS011;29527;55.766;37.570;2023-02-08T08:13:21;18.67;;;8.20;;
37791;SDS011;29527;55.766;37.570;2023-02-08T08:15:47;19.05;;;8.95;;
37791;SDS011;29527;55.766;37.570;2023-02-08T08:18:12;15.90;;;7.72;;
37791;SDS011;29527;55.766;37.570;2023-02-08T08:20:38;15.18;;;8.65;;
37791;SDS011;29527;55.766;37.570;2023-02-08T08:23:04;16.30;;;8.38;;
37791;SDS011;29527;55.766;37.570;2023-02-08T08:25:29;14.20;;;7.80;;
37791;SDS011;29527;55.766;37.570;2023-02-08T08:27:55;14.40;;;8.45;;
37791;SDS011;29527;55.766;37.570;2023-02-08T08:30:21;17.40;;;8.63;;
37791;SDS011;29527;55.766;37.570;2023-02-08T08:32:46;13.65;;;7.53;;
37791;SDS011;29527;55.766;37.570;2023-02-08T08:35:12;16.73;;;8.43;;
37791;SDS011;29527;55.766;37.570;2023-02-08T08:37:38;14.68;;;8.38;;
37791;SDS011;29527;55.766;37.570;2023-02-08T08:40:03;14.40;;;8.18;;
37791;SDS011;29527;55.766;37.570;2023-02-08T08:42:31;14.30;;;8.18;;
37791;SDS011;29527;55.766;37.570;2023-02-08T08:44:57;16.10;;;8.70;;
37791;SDS011;29527;55.766;37.570;2023-02-08T08:47:23;19.90;;;9.45;;
37791;SDS011;29527;55.766;37.570;2023-02-08T08:49:48;19.55;;;8.43;;
37791;SDS011;29527;55.766;37.570;2023-02-08T08:52:14;19.65;;;8.90;;
37791;SDS011;29527;55.766;37.570;2023-02-08T08:54:39;19.85;;;8.35;;
37791;SDS011;29527;55.766;37.570;2023-02-08T08:57:05;18.60;;;8.18;;
37791;SDS011;29527;55.766;37.570;2023-02-08T08:59:31;15.63;;;8.15;;
37791;SDS011;29527;55.766;37.570;2023-02-08T09:01:57;17.20;;;8.05;;
37791;SDS011;29527;55.766;37.570;2023-02-08T09:04:22;17.73;;;8.85;;
37791;SDS011;29527;55.766;37.570;2023-02-08T09:06:48;16.20;;;7.97;;
37791;SDS011;29527;55.766;37.570;2023-02-08T09:09:15;17.85;;;8.20;;
37791;SDS011;29527;55.766;37.570;2023-02-08T09:11:41;18.83;;;8.32;;
37791;SDS011;29527;55.766;37.570;2023-02-08T09:14:07;14.48;;;8.40;;
37791;SDS011;29527;55.766;37.570;2023-02-08T09:16:33;16.58;;;8.07;;
37791;SDS011;29527;55.766;37.570;2023-02-08T09:19:02;12.70;;;7.63;;
37791;SDS011;29527;55.766;37.570;2023-02-08T09:21:29;13.20;;;7.38;;
37791;SDS011;29527;55.766;37.570;2023-02-08T09:23:55;15.48;;;7.72;;
37791;SDS011;29527;55.766;37.570;2023-02-08T09:26:20;13.30;;;8.35;;
37791;SDS011;29527;55.766;37.570;2023-02-08T09:28:46;13.93;;;7.93;;
37791;SDS011;29527;55.766;37.570;2023-02-08T09:31:14;14.00;;;8.23;;
37791;SDS011;29527;55.766;37.570;2023-02-08T09:33:44;13.15;;;7.78;;
37791;SDS011;29527;55.766;37.570;2023-02-08T09:36:09;13.63;;;8.00;;
37791;SDS011;29527;55.766;37.570;2023-02-08T09:38:37;13.45;;;7.45;;
37791;SDS011;29527;55.766;37.570;2023-02-08T09:41:20;13.75;;;8.20;;
37791;SDS011;29527;55.766;37.570;2023-02-08T09:46:21;13.80;;;8.40;;
37791;SDS011;29527;55.766;37.570;2023-02-08T09:48:51;13.43;;;8.25;;
37791;SDS011;29527;55.766;37.570;2023-02-08T09:54:07;17.88;;;8.00;;
37791;SDS011;29527;55.766;37.570;2023-02-08T09:56:40;13.77;;;8.38;;
37791;SDS011;29527;55.766;37.570;2023-02-08T09:59:12;14.57;;;7.93;;
37791;SDS011;29527;55.766;37.570;2023-02-08T10:01:52;13.07;;;7.78;;
37791;SDS011;29527;55.766;37.570;2023-02-08T10:07:23;14.98;;;7.97;;
37791;SDS011;29527;55.766;37.570;2023-02-08T10:09:53;15.27;;;8.43;;
37791;SDS011;29527;55.766;37.570;2023-02-08T10:15:09;18.58;;;7.72;;
37791;SDS011;29527;55.766;37.570;2023-02-08T10:23:11;14.57;;;8.02;;
37791;SDS011;29527;55.766;37.570;2023-02-08T10:29:44;16.48;;;7.90;;
37791;SDS011;29527;55.766;37.570;2023-02-08T10:32:14;15.23;;;8.50;;
37791;SDS011;29527;55.766;37.570;2023-02-08T10:35:01;13.98;;;7.88;;
37791;SDS011;29527;55.766;37.570;2023-02-08T10:37:48;16.17;;;8.30;;
37791;SDS011;29527;55.766;37.570;2023-02-08T10:45:38;13.52;;;8.65;;
37791;SDS011;29527;55.766;37.570;2023-02-08T10:48:18;15.43;;;8.20;;
37791;SDS011;29527;55.766;37.570;2023-02-08T10:51:08;14.25;;;8.60;;
37791;SDS011;29527;55.766;37.570;2023-02-08T10:53:38;13.82;;;7.90;;
37791;SDS011;29527;55.766;37.570;2023-02-08T10:56:04;15.23;;;8.15;;
37791;SDS011;29527;55.766;37.570;2023-02-08T10:58:30;13.00;;;8.23;;
37791;SDS011;29527;55.766;37.570;2023-02-08T11:00:56;11.60;;;7.53;;
37791;SDS011;29527;55.766;37.570;2023-02-08T11:03:24;13.68;;;8.00;;
37791;SDS011;29527;55.766;37.570;2023-02-08T11:05:51;13.60;;;8.40;;
37791;SDS011;29527;55.766;37.570;2023-02-08T11:10:57;12.98;;;7.95;;
37791;SDS011;29527;55.766;37.570;2023-02-08T11:13:23;12.55;;;7.72;;
37791;SDS011;29527;55.766;37.570;2023-02-08T11:15:59;11.35;;;7.50;;
37791;SDS011;29527;55.766;37.570;2023-02-08T11:20:59;13.95;;;8.45;;
37791;SDS011;29527;55.766;37.570;2023-02-08T11:23:29;14.23;;;8.52;;
37791;SDS011;29527;55.766;37.570;2023-02-08T11:26:16;12.45;;;8.13;;
37791;SDS011;29527;55.766;37.570;2023-02-08T11:28:41;12.05;;;7.45;;
37791;SDS011;29527;55.766;37.570;2023-02-08T11:31:18;12.02;;;7.85;;
37791;SDS011;29527;55.766;37.570;2023-02-08T11:33:56;13.20;;;7.75;;
37791;SDS011;29527;55.766;37.570;2023-02-08T11:36:22;14.50;;;8.27;;
37791;SDS011;29527;55.766;37.570;2023-02-08T11:38:48;12.82;;;8.00;;
37791;SDS011;29527;55.766;37.570;2023-02-08T11:41:15;13.40;;;8.20;;
37791;SDS011;29527;55.766;37.570;2023-02-08T11:43:48;14.25;;;7.72;;
37791;SDS011;29527;55.766;37.570;2023-02-08T11:46:22;13.05;;;7.68;;
37791;SDS011;29527;55.766;37.570;2023-02-08T11:48:51;16.80;;;8.25;;
37791;SDS011;29527;55.766;37.570;2023-02-08T11:51:25;13.98;;;8.50;;
37791;SDS011;29527;55.766;37.570;2023-02-08T11:53:55;11.68;;;7.70;;
37791;SDS011;29527;55.766;37.570;2023-02-08T11:56:25;18.45;;;8.25;;
37791;SDS011;29527;55.766;37.570;2023-02-08T11:58:56;17.10;;;8.23;;
37791;SDS011;29527;55.766;37.570;2023-02-08T12:01:35;15.32;;;7.47;;
37791;SDS011;29527;55.766;37.570;2023-02-08T12:04:03;15.82;;;7.28;;
37791;SDS011;29527;55.766;37.570;2023-02-08T12:06:45;13.88;;;7.53;;
37791;SDS011;29527;55.766;37.570;2023-02-08T12:15:06;15.05;;;7.50;;
37791;SDS011;29527;55.766;37.570;2023-02-08T12:20:44;16.38;;;8.30;;
37791;SDS011;29527;55.766;37.570;2023-02-08T12:26:22;14.55;;;7.28;;
37791;SDS011;29527;55.766;37.570;2023-02-08T12:40:26;17.13;;;7.88;;
37791;SDS011;29527;55.766;37.570;2023-02-08T12:54:27;11.10;;;6.70;;
37791;SDS011;29527;55.766;37.570;2023-02-08T12:56:57;13.75;;;7.45;;
37791;SDS011;29527;55.766;37.570;2023-02-08T12:59:33;11.70;;;6.80;;
37791;SDS011;29527;55.766;37.570;2023-02-08T13:05:02;12.80;;;6.65;;
37791;SDS011;29527;55.766;37.570;2023-02-08T13:07:40;19.80;;;6.85;;
37791;SDS011;29527;55.766;37.570;2023-02-08T13:10:11;11.48;;;6.57;;
37791;SDS011;29527;55.766;37.570;2023-02-08T13:12:57;16.08;;;6.85;;
37791;SDS011;29527;55.766;37.570;2023-02-08T13:15:47;12.77;;;6.30;;
37791;SDS011;29527;55.766;37.570;2023-02-08T13:18:24;11.40;;;6.38;;
37791;SDS011;29527;55.766;37.570;2023-02-08T13:21:05;11.13;;;5.93;;
37791;SDS011;29527;55.766;37.570;2023-02-08T13:23:42;10.15;;;6.60;;
37791;SDS011;29527;55.766;37.570;2023-02-08T13:26:23;12.80;;;6.55;;
37791;SDS011;29527;55.766;37.570;2023-02-08T13:28:56;16.58;;;6.57;;
37791;SDS011;29527;55.766;37.570;2023-02-08T13:31:30;13.82;;;6.50;;
37791;SDS011;29527;55.766;37.570;2023-02-08T13:34:03;13.40;;;6.32;;
37791;SDS011;29527;55.766;37.570;2023-02-08T13:36:38;9.88;;;6.07;;
37791;SDS011;29527;55.766;37.570;2023-02-08T13:39:21;13.73;;;6.10;;
37791;SDS011;29527;55.766;37.570;2023-02-08T13:41:55;13.38;;;6.20;;
37791;SDS011;29527;55.766;37.570;2023-02-08T13:44:32;10.60;;;6.32;;
37791;SDS011;29527;55.766;37.570;2023-02-08T13:47:01;13.00;;;6.13;;
37791;SDS011;29527;55.766;37.570;2023-02-08T13:49:42;10.32;;;6.28;;
37791;SDS011;29527;55.766;37.570;2023-02-08T13:53:00;11.60;;;6.97;;
37791;SDS011;29527;55.766;37.570;2023-02-08T14:03:34;9.38;;;6.05;;
37791;SDS011;29527;55.766;37.570;2023-02-08T14:06:04;11.98;;;6.25;;
37791;SDS011;29527;55.766;37.570;2023-02-08T14:08:39;9.65;;;6.15;;
37791;SDS011;29527;55.766;37.570;2023-02-08T14:13:45;10.55;;;6.15;;
37791;SDS011;29527;55.766;37.570;2023-02-08T14:18:58;12.50;;;6.38;;
37791;SDS011;29527;55.766;37.570;2023-02-08T14:21:33;12.48;;;6.40;;
37791;SDS011;29527;55.766;37.570;2023-02-08T14:24:03;9.85;;;6.13;;
37791;SDS011;29527;55.766;37.570;2023-02-08T14:26:31;14.25;;;6.38;;
37791;SDS011;29527;55.766;37.570;2023-02-08T14:29:00;10.35;;;5.90;;
37791;SDS011;29527;55.766;37.570;2023-02-08T14:31:39;12.23;;;6.95;;
37791;SDS011;29527;55.766;37.570;2023-02-08T14:37:25;9.55;;;6.10;;
37791;SDS011;29527;55.766;37.570;2023-02-08T14:45:50;9.85;;;6.13;;
37791;SDS011;29527;55.766;37.570;2023-02-08T14:50:53;12.30;;;6.22;;
37791;SDS011;29527;55.766;37.570;2023-02-08T14:53:24;8.50;;;5.65;;
37791;SDS011;29527;55.766;37.570;2023-02-08T14:56:06;10.88;;;5.82;;
37791;SDS011;29527;55.766;37.570;2023-02-08T14:58:43;14.63;;;6.85;;
37791;SDS011;29527;55.766;37.570;2023-02-08T15:03:46;11.10;;;6.35;;
37791;SDS011;29527;55.766;37.570;2023-02-08T15:08:47;10.18;;;6.13;;
37791;SDS011;29527;55.766;37.570;2023-02-08T15:11:24;11.07;;;6.40;;
37791;SDS011;29527;55.766;37.570;2023-02-08T15:13:54;9.88;;;6.20;;
37791;SDS011;29527;55.766;37.570;2023-02-08T15:16:21;11.80;;;6.35;;
37791;SDS011;29527;55.766;37.570;2023-02-08T15:18:51;10.85;;;5.95;;
37791;SDS011;29527;55.766;37.570;2023-02-08T15:21:18;15.48;;;7.65;;
37791;SDS011;29527;55.766;37.570;2023-02-08T15:23:59;11.07;;;6.88;;
37791;SDS011;29527;55.766;37.570;2023-02-08T15:26:26;13.23;;;6.78;;
37791;SDS011;29527;55.766;37.570;2023-02-08T15:28:52;11.60;;;6.40;;
37791;SDS011;29527;55.766;37.570;2023-02-08T15:31:22;11.93;;;6.60;;
37791;SDS011;29527;55.766;37.570;2023-02-08T15:38:54;9.93;;;5.88;;
37791;SDS011;29527;55.766;37.570;2023-02-08T15:41:28;10.88;;;5.72;;
37791;SDS011;29527;55.766;37.570;2023-02-08T15:46:47;11.40;;;5.60;;
37791;SDS011;29527;55.766;37.570;2023-02-08T15:49:26;9.27;;;5.80;;
37791;SDS011;29527;55.766;37.570;2023-02-08T15:51:55;9.82;;;5.63;;
37791;SDS011;29527;55.766;37.570;2023-02-08T15:54:22;7.78;;;5.20;;
37791;SDS011;29527;55.766;37.570;2023-02-08T15:59:22;8.88;;;5.70;;
37791;SDS011;29527;55.766;37.570;2023-02-08T16:01:50;10.38;;;5.60;;
37791;SDS011;29527;55.766;37.570;2023-02-08T16:04:17;10.30;;;5.82;;
37791;SDS011;29527;55.766;37.570;2023-02-08T16:06:45;11.00;;;5.95;;
37791;SDS011;29527;55.766;37.570;2023-02-08T16:09:24;10.05;;;5.32;;
37791;SDS011;29527;55.766;37.570;2023-02-08T16:11:53;8.52;;;5.53;;
37791;SDS011;29527;55.766;37.570;2023-02-08T16:14:22;8.60;;;5.70;;
37791;SDS011;29527;55.766;37.570;2023-02-08T16:16:50;10.82;;;5.90;;
37791;SDS011;29527;55.766;37.570;2023-02-08T16:19:31;7.68;;;4.97;;
37791;SDS011;29527;55.766;37.570;2023-02-08T16:24:38;10.35;;;5.90;;
37791;SDS011;29527;55.766;37.570;2023-02-08T16:27:04;9.90;;;5.72;;
37791;SDS011;29527;55.766;37.570;2023-02-08T16:29:38;9.07;;;5.70;;
37791;SDS011;29527;55.766;37.570;2023-02-08T16:32:06;10.15;;;6.03;;
37791;SDS011;29527;55.766;37.570;2023-02-08T16:34:42;11.10;;;5.45;;
37791;SDS011;29527;55.766;37.570;2023-02-08T16:37:19;7.63;;;5.50;;
37791;SDS011;29527;55.766;37.570;2023-02-08T16:47:36;9.95;;;5.65;;
37791;SDS011;29527;55.766;37.570;2023-02-08T16:50:07;9.50;;;5.47;;
37791;SDS011;29527;55.766;37.570;2023-02-08T16:52:35;11.13;;;5.88;;
37791;SDS011;29527;55.766;37.570;2023-02-08T16:55:01;11.63;;;5.82;;
37791;SDS011;29527;55.766;37.570;2023-02-08T16:57:38;12.15;;;6.25;;
37791;SDS011;29527;55.766;37.570;2023-02-08T17:00:12;12.05;;;6.68;;
37791;SDS011;29527;55.766;37.570;2023-02-08T17:02:49;10.50;;;6.40;;
37791;SDS011;29527;55.766;37.570;2023-02-08T17:05:15;11.65;;;6.15;;
37791;SDS011;29527;55.766;37.570;2023-02-08T17:07:42;9.50;;;5.57;;
37791;SDS011;29527;55.766;37.570;2023-02-08T17:10:10;11.82;;;6.60;;
37791;SDS011;29527;55.766;37.570;2023-02-08T17:12:40;9.55;;;5.60;;
37791;SDS011;29527;55.766;37.570;2023-02-08T17:15:06;12.57;;;6.18;;
37791;SDS011;29527;55.766;37.570;2023-02-08T17:17:32;8.80;;;5.47;;
37791;SDS011;29527;55.766;37.570;2023-02-08T17:19:57;9.40;;;5.78;;
37791;SDS011;29527;55.766;37.570;2023-02-08T17:22:22;8.85;;;5.63;;
37791;SDS011;29527;55.766;37.570;2023-02-08T17:24:48;12.63;;;5.72;;